sensor_id;sensor_type;location;lat;lon;timestamp;P1;durP1;ratioP1;P2;durP2;ratioP2
5137;SDS011;53959;53.626;11.410;2024-02-23T00:01:23;725.93;;;531.37;;
5137;SDS011;53959;53.626;11.410;2024-02-23T00:03:49;1088.33;;;713.77;;
5137;SDS011;53959;53.626;11.410;2024-02-23T00:06:14;1526.50;;;829.50;;
5137;SDS011;53959;53.626;11.410;2024-02-23T00:08:39;1784.15;;;836.80;;
5137;SDS011;53959;53.626;11.410;2024-02-23T00:11:06;583.00;;;454.27;;
5137;SDS011;53959;53.626;11.410;2024-02-23T00:13:31;730.17;;;544.35;;
5137;SDS011;53959;53.626;11.410;2024-02-23T00:15:57;798.90;;;601.20;;
5137;SDS011;53959;53.626;11.410;2024-02-23T00:28:03;867.00;;;656.40;;
5137;SDS011;53959;53.626;11.410;2024-02-23T00:37:44;76.00;;;34.70;;
5137;SDS011;53959;53.626;11.410;2024-02-23T00:40:10;1999.90;;;999.90;;
5137;SDS011;53959;53.626;11.410;2024-02-23T00:42:36;1999.90;;;999.90;;
5137;SDS011;53959;53.626;11.410;2024-02-23T00:45:01;1999.90;;;992.87;;
5137;SDS011;53959;53.626;11.410;2024-02-23T00:47:27;1999.90;;;962.97;;
5137;SDS011;53959;53.626;11.410;2024-02-23T00:49:53;1999.90;;;999.90;;
5137;SDS011;53959;53.626;11.410;2024-02-23T00:52:18;1999.90;;;903.00;;
5137;SDS011;53959;53.626;11.410;2024-02-23T00:54:43;1989.30;;;855.93;;
5137;SDS011;53959;53.626;11.410;2024-02-23T00:57:09;1999.90;;;863.27;;
5137;SDS011;53959;53.626;11.410;2024-02-23T00:59:34;1999.90;;;902.00;;
5137;SDS011;53959;53.626;11.410;2024-02-23T01:01:59;1999.90;;;860.87;;
5137;SDS011;53959;53.626;11.410;2024-02-23T01:04:25;1626.20;;;829.03;;
5137;SDS011;53959;53.626;11.410;2024-02-23T01:06:50;1334.63;;;798.17;;
5137;SDS011;53959;53.626;11.410;2024-02-23T01:09:16;1344.27;;;799.47;;
5137;SDS011;53959;53.626;11.410;2024-02-23T01:11:45;1999.90;;;918.67;;
5137;SDS011;53959;53.626;11.410;2024-02-23T01:14:14;1999.90;;;865.10;;
5137;SDS011;53959;53.626;11.410;2024-02-23T01:16:39;1961.87;;;849.53;;
5137;SDS011;53959;53.626;11.410;2024-02-23T01:19:04;1999.90;;;856.37;;
5137;SDS011;53959;53.626;11.410;2024-02-23T01:21:30;1716.07;;;825.50;;
5137;SDS011;53959;53.626;11.410;2024-02-23T01:23:55;1999.90;;;926.73;;
5137;SDS011;53959;53.626;11.410;2024-02-23T01:26:22;1889.57;;;831.03;;
5137;SDS011;53959;53.626;11.410;2024-02-23T01:28:48;1422.20;;;800.20;;
5137;SDS011;53959;53.626;11.410;2024-02-23T01:31:13;1378.77;;;791.63;;
5137;SDS011;53959;53.626;11.410;2024-02-23T01:33:39;1424.10;;;799.10;;
5137;SDS011;53959;53.626;11.410;2024-02-23T01:36:05;1117.80;;;733.13;;
5137;SDS011;53959;53.626;11.410;2024-02-23T01:38:30;1999.90;;;900.63;;
5137;SDS011;53959;53.626;11.410;2024-02-23T01:40:58;1900.77;;;844.90;;
5137;SDS011;53959;53.626;11.410;2024-02-23T01:43:23;1480.30;;;810.47;;
5137;SDS011;53959;53.626;11.410;2024-02-23T01:45:53;1273.47;;;778.30;;
5137;SDS011;53959;53.626;11.410;2024-02-23T01:48:19;1268.55;;;774.80;;
5137;SDS011;53959;53.626;11.410;2024-02-23T01:50:44;1318.17;;;780.33;;
5137;SDS011;53959;53.626;11.410;2024-02-23T01:53:10;1051.40;;;691.47;;
5137;SDS011;53959;53.626;11.410;2024-02-23T01:55:37;981.08;;;658.42;;
5137;SDS011;53959;53.626;11.410;2024-02-23T01:58:04;1058.33;;;675.57;;
5137;SDS011;53959;53.626;11.410;2024-02-23T02:00:30;1999.90;;;864.87;;
5137;SDS011;53959;53.626;11.410;2024-02-23T02:02:56;1999.90;;;923.30;;
5137;SDS011;53959;53.626;11.410;2024-02-23T02:05:21;1999.90;;;999.90;;
5137;SDS011;53959;53.626;11.410;2024-02-23T02:07:47;1999.90;;;999.90;;
5137;SDS011;53959;53.626;11.410;2024-02-23T02:10:18;1999.90;;;974.60;;
5137;SDS011;53959;53.626;11.410;2024-02-23T02:12:45;1999.90;;;851.80;;
5137;SDS011;53959;53.626;11.410;2024-02-23T02:15:11;1999.90;;;852.17;;
5137;SDS011;53959;53.626;11.410;2024-02-23T02:17:36;1596.93;;;821.40;;
5137;SDS011;53959;53.626;11.410;2024-02-23T02:20:02;1556.63;;;821.40;;
5137;SDS011;53959;53.626;11.410;2024-02-23T02:22:32;1492.93;;;816.40;;
5137;SDS011;53959;53.626;11.410;2024-02-23T02:24:58;1460.33;;;807.50;;
5137;SDS011;53959;53.626;11.410;2024-02-23T02:27:24;1638.43;;;824.87;;
5137;SDS011;53959;53.626;11.410;2024-02-23T02:29:52;1663.73;;;821.70;;
5137;SDS011;53959;53.626;11.410;2024-02-23T02:32:17;1640.30;;;824.63;;
5137;SDS011;53959;53.626;11.410;2024-02-23T02:34:43;1447.80;;;810.13;;
5137;SDS011;53959;53.626;11.410;2024-02-23T02:37:08;1300.67;;;774.07;;
5137;SDS011;53959;53.626;11.410;2024-02-23T02:39:34;1520.30;;;815.47;;
5137;SDS011;53959;53.626;11.410;2024-02-23T02:41:59;1454.87;;;807.33;;
5137;SDS011;53959;53.626;11.410;2024-02-23T02:44:25;1210.77;;;747.03;;
5137;SDS011;53959;53.626;11.410;2024-02-23T02:46:51;1318.53;;;778.17;;
5137;SDS011;53959;53.626;11.410;2024-02-23T02:49:17;1282.17;;;768.53;;
5137;SDS011;53959;53.626;11.410;2024-02-23T02:51:42;1290.35;;;770.25;;
5137;SDS011;53959;53.626;11.410;2024-02-23T02:54:08;1434.00;;;803.17;;
5137;SDS011;53959;53.626;11.410;2024-02-23T02:56:33;975.10;;;615.77;;
5137;SDS011;53959;53.626;11.410;2024-02-23T02:58:58;881.20;;;591.88;;
5137;SDS011;53959;53.626;11.410;2024-02-23T03:11:07;1033.38;;;660.97;;
5137;SDS011;53959;53.626;11.410;2024-02-23T03:13:32;933.55;;;609.42;;
5137;SDS011;53959;53.626;11.410;2024-02-23T03:20:48;831.53;;;597.93;;
5137;SDS011;53959;53.626;11.410;2024-02-23T03:23:13;797.80;;;591.53;;
5137;SDS011;53959;53.626;11.410;2024-02-23T03:25:39;808.08;;;560.70;;
5137;SDS011;53959;53.626;11.410;2024-02-23T03:28:04;778.67;;;545.95;;
5137;SDS011;53959;53.626;11.410;2024-02-23T03:30:30;1087.00;;;770.20;;
5137;SDS011;53959;53.626;11.410;2024-02-23T03:32:55;765.90;;;546.50;;
5137;SDS011;53959;53.626;11.410;2024-02-23T03:35:20;1005.45;;;712.45;;
5137;SDS011;53959;53.626;11.410;2024-02-23T03:37:46;814.73;;;580.70;;
5137;SDS011;53959;53.626;11.410;2024-02-23T03:40:11;797.80;;;563.20;;
5137;SDS011;53959;53.626;11.410;2024-02-23T03:42:37;789.13;;;557.58;;
5137;SDS011;53959;53.626;11.410;2024-02-23T03:45:04;1999.90;;;861.83;;
5137;SDS011;53959;53.626;11.410;2024-02-23T03:47:29;1999.90;;;876.37;;
5137;SDS011;53959;53.626;11.410;2024-02-23T03:49:55;1999.90;;;866.77;;
5137;SDS011;53959;53.626;11.410;2024-02-23T03:52:20;1999.90;;;878.20;;
5137;SDS011;53959;53.626;11.410;2024-02-23T03:54:45;1999.90;;;871.83;;
5137;SDS011;53959;53.626;11.410;2024-02-23T03:57:11;1999.90;;;862.70;;
5137;SDS011;53959;53.626;11.410;2024-02-23T03:59:36;1999.90;;;851.57;;
5137;SDS011;53959;53.626;11.410;2024-02-23T04:02:02;1889.63;;;833.87;;
5137;SDS011;53959;53.626;11.410;2024-02-23T04:04:28;1975.93;;;847.93;;
5137;SDS011;53959;53.626;11.410;2024-02-23T04:06:54;1866.43;;;832.43;;
5137;SDS011;53959;53.626;11.410;2024-02-23T04:09:19;1863.07;;;833.63;;
5137;SDS011;53959;53.626;11.410;2024-02-23T04:11:47;1739.87;;;823.67;;
5137;SDS011;53959;53.626;11.410;2024-02-23T04:14:12;1763.90;;;825.27;;
5137;SDS011;53959;53.626;11.410;2024-02-23T04:16:38;1493.13;;;812.87;;
5137;SDS011;53959;53.626;11.410;2024-02-23T04:19:03;1416.60;;;794.70;;
5137;SDS011;53959;53.626;11.410;2024-02-23T04:21:29;1446.40;;;802.20;;
5137;SDS011;53959;53.626;11.410;2024-02-23T04:23:54;1374.20;;;785.73;;
5137;SDS011;53959;53.626;11.410;2024-02-23T04:26:20;1360.30;;;780.00;;
5137;SDS011;53959;53.626;11.410;2024-02-23T04:28:45;1359.70;;;780.43;;
5137;SDS011;53959;53.626;11.410;2024-02-23T04:31:10;1226.20;;;743.47;;
5137;SDS011;53959;53.626;11.410;2024-02-23T04:33:36;1240.80;;;742.77;;
5137;SDS011;53959;53.626;11.410;2024-02-23T04:36:03;1297.43;;;765.20;;
5137;SDS011;53959;53.626;11.410;2024-02-23T04:38:29;1300.73;;;762.80;;
5137;SDS011;53959;53.626;11.410;2024-02-23T04:40:56;1378.13;;;778.63;;
5137;SDS011;53959;53.626;11.410;2024-02-23T04:43:22;1394.80;;;782.43;;
5137;SDS011;53959;53.626;11.410;2024-02-23T04:45:48;1432.83;;;789.90;;
5137;SDS011;53959;53.626;11.410;2024-02-23T04:48:13;1319.43;;;750.53;;
5137;SDS011;53959;53.626;11.410;2024-02-23T04:50:39;1332.33;;;758.17;;
5137;SDS011;53959;53.626;11.410;2024-02-23T04:53:04;1354.57;;;759.53;;
5137;SDS011;53959;53.626;11.410;2024-02-23T04:55:29;1319.93;;;756.07;;
5137;SDS011;53959;53.626;11.410;2024-02-23T04:57:55;1370.50;;;782.83;;
5137;SDS011;53959;53.626;11.410;2024-02-23T05:00:21;1331.27;;;775.10;;
5137;SDS011;53959;53.626;11.410;2024-02-23T05:02:46;1325.83;;;770.67;;
5137;SDS011;53959;53.626;11.410;2024-02-23T05:05:11;1296.40;;;756.77;;
5137;SDS011;53959;53.626;11.410;2024-02-23T05:07:37;1149.30;;;701.00;;
5137;SDS011;53959;53.626;11.410;2024-02-23T05:10:03;1145.07;;;698.87;;
5137;SDS011;53959;53.626;11.410;2024-02-23T05:12:29;1163.90;;;718.20;;
5137;SDS011;53959;53.626;11.410;2024-02-23T05:14:54;1078.87;;;679.43;;
5137;SDS011;53959;53.626;11.410;2024-02-23T05:17:20;1056.70;;;665.77;;
5137;SDS011;53959;53.626;11.410;2024-02-23T05:19:45;1036.37;;;658.87;;
5137;SDS011;53959;53.626;11.410;2024-02-23T05:22:11;1075.77;;;680.63;;
5137;SDS011;53959;53.626;11.410;2024-02-23T05:24:37;1066.37;;;678.80;;
5137;SDS011;53959;53.626;11.410;2024-02-23T05:27:03;1021.73;;;654.00;;
5137;SDS011;53959;53.626;11.410;2024-02-23T05:29:28;1062.00;;;680.13;;
5137;SDS011;53959;53.626;11.410;2024-02-23T05:31:54;1057.13;;;675.10;;
5137;SDS011;53959;53.626;11.410;2024-02-23T05:34:20;1139.33;;;702.33;;
5137;SDS011;53959;53.626;11.410;2024-02-23T05:36:46;1165.13;;;712.47;;
5137;SDS011;53959;53.626;11.410;2024-02-23T05:39:12;1198.27;;;730.90;;
5137;SDS011;53959;53.626;11.410;2024-02-23T05:41:38;1206.10;;;733.10;;
5137;SDS011;53959;53.626;11.410;2024-02-23T05:44:04;1197.93;;;730.97;;
5137;SDS011;53959;53.626;11.410;2024-02-23T05:46:39;1154.23;;;716.17;;
5137;SDS011;53959;53.626;11.410;2024-02-23T05:49:05;1015.90;;;658.43;;
5137;SDS011;53959;53.626;11.410;2024-02-23T05:51:30;1042.50;;;677.50;;
5137;SDS011;53959;53.626;11.410;2024-02-23T05:53:56;1019.30;;;654.20;;
5137;SDS011;53959;53.626;11.410;2024-02-23T05:56:22;1037.77;;;663.20;;
5137;SDS011;53959;53.626;11.410;2024-02-23T05:58:49;1023.17;;;659.07;;
5137;SDS011;53959;53.626;11.410;2024-02-23T06:01:15;1086.95;;;667.95;;
5137;SDS011;53959;53.626;11.410;2024-02-23T06:03:40;951.67;;;602.00;;
5137;SDS011;53959;53.626;11.410;2024-02-23T06:06:06;961.40;;;605.00;;
5137;SDS011;53959;53.626;11.410;2024-02-23T06:08:33;950.43;;;615.47;;
5137;SDS011;53959;53.626;11.410;2024-02-23T06:10:58;945.63;;;617.17;;
5137;SDS011;53959;53.626;11.410;2024-02-23T06:13:25;950.03;;;621.80;;
5137;SDS011;53959;53.626;11.410;2024-02-23T06:15:50;882.92;;;590.70;;
5137;SDS011;53959;53.626;11.410;2024-02-23T06:20:41;1235.47;;;765.17;;
5137;SDS011;53959;53.626;11.410;2024-02-23T06:23:06;901.17;;;584.20;;
5137;SDS011;53959;53.626;11.410;2024-02-23T06:25:32;870.80;;;574.58;;
5137;SDS011;53959;53.626;11.410;2024-02-23T06:27:57;872.35;;;578.80;;
5137;SDS011;53959;53.626;11.410;2024-02-23T06:30:22;809.75;;;547.25;;
5137;SDS011;53959;53.626;11.410;2024-02-23T06:32:48;816.47;;;549.88;;
5137;SDS011;53959;53.626;11.410;2024-02-23T06:35:13;785.83;;;542.13;;
5137;SDS011;53959;53.626;11.410;2024-02-23T06:37:39;825.28;;;566.13;;
5137;SDS011;53959;53.626;11.410;2024-02-23T06:40:05;808.85;;;553.25;;
5137;SDS011;53959;53.626;11.410;2024-02-23T06:42:32;835.75;;;568.75;;
5137;SDS011;53959;53.626;11.410;2024-02-23T06:44:58;853.65;;;577.22;;
5137;SDS011;53959;53.626;11.410;2024-02-23T06:47:23;801.70;;;553.38;;
5137;SDS011;53959;53.626;11.410;2024-02-23T06:49:50;804.45;;;557.75;;
5137;SDS011;53959;53.626;11.410;2024-02-23T06:52:15;781.05;;;549.38;;
5137;SDS011;53959;53.626;11.410;2024-02-23T06:54:41;796.10;;;553.55;;
5137;SDS011;53959;53.626;11.410;2024-02-23T06:57:06;777.65;;;543.05;;
5137;SDS011;53959;53.626;11.410;2024-02-23T06:59:32;777.97;;;546.95;;
5137;SDS011;53959;53.626;11.410;2024-02-23T07:01:57;784.85;;;547.83;;
5137;SDS011;53959;53.626;11.410;2024-02-23T07:04:23;860.28;;;584.97;;
5137;SDS011;53959;53.626;11.410;2024-02-23T07:06:48;905.63;;;602.43;;
5137;SDS011;53959;53.626;11.410;2024-02-23T07:09:13;879.35;;;592.08;;
5137;SDS011;53959;53.626;11.410;2024-02-23T07:11:39;874.72;;;589.15;;
5137;SDS011;53959;53.626;11.410;2024-02-23T07:14:06;859.10;;;581.15;;
5137;SDS011;53959;53.626;11.410;2024-02-23T07:16:32;869.47;;;586.45;;
5137;SDS011;53959;53.626;11.410;2024-02-23T07:18:57;829.58;;;567.38;;
5137;SDS011;53959;53.626;11.410;2024-02-23T07:21:23;848.50;;;577.03;;
5137;SDS011;53959;53.626;11.410;2024-02-23T07:23:48;766.20;;;538.80;;
5137;SDS011;53959;53.626;11.410;2024-02-23T07:26:13;762.35;;;536.67;;
5137;SDS011;53959;53.626;11.410;2024-02-23T07:28:39;765.72;;;539.35;;
5137;SDS011;53959;53.626;11.410;2024-02-23T07:31:04;759.92;;;532.97;;
5137;SDS011;53959;53.626;11.410;2024-02-23T07:33:29;762.75;;;537.10;;
5137;SDS011;53959;53.626;11.410;2024-02-23T07:35:55;763.88;;;536.35;;
5137;SDS011;53959;53.626;11.410;2024-02-23T07:38:20;795.40;;;554.97;;
5137;SDS011;53959;53.626;11.410;2024-02-23T07:40:46;723.80;;;520.47;;
5137;SDS011;53959;53.626;11.410;2024-02-23T07:43:11;735.43;;;529.93;;
5137;SDS011;53959;53.626;11.410;2024-02-23T07:45:37;693.75;;;499.58;;
5137;SDS011;53959;53.626;11.410;2024-02-23T07:48:03;847.80;;;624.00;;
5137;SDS011;53959;53.626;11.410;2024-02-23T07:50:28;808.35;;;590.97;;
5137;SDS011;53959;53.626;11.410;2024-02-23T07:55:19;723.23;;;524.87;;
5137;SDS011;53959;53.626;11.410;2024-02-23T07:57:44;1002.90;;;765.40;;
5137;SDS011;53959;53.626;11.410;2024-02-23T08:00:10;1041.15;;;725.60;;
5137;SDS011;53959;53.626;11.410;2024-02-23T08:05:05;997.77;;;733.60;;
5137;SDS011;53959;53.626;11.410;2024-02-23T08:07:32;724.95;;;531.45;;
5137;SDS011;53959;53.626;11.410;2024-02-23T08:09:57;709.90;;;511.63;;
5137;SDS011;53959;53.626;11.410;2024-02-23T08:12:22;758.08;;;537.28;;
5137;SDS011;53959;53.626;11.410;2024-02-23T08:14:48;745.13;;;528.17;;
5137;SDS011;53959;53.626;11.410;2024-02-23T08:17:15;778.78;;;549.08;;
5137;SDS011;53959;53.626;11.410;2024-02-23T08:22:06;983.33;;;723.07;;
5137;SDS011;53959;53.626;11.410;2024-02-23T08:26:56;977.87;;;725.40;;
5137;SDS011;53959;53.626;11.410;2024-02-23T08:29:22;824.03;;;570.08;;
5137;SDS011;53959;53.626;11.410;2024-02-23T08:31:47;814.92;;;565.53;;
5137;SDS011;53959;53.626;11.410;2024-02-23T08:36:38;1022.67;;;728.43;;
5137;SDS011;53959;53.626;11.410;2024-02-23T08:43:54;1088.90;;;730.70;;
5137;SDS011;53959;53.626;11.410;2024-02-23T08:46:20;825.35;;;580.53;;
5137;SDS011;53959;53.626;11.410;2024-02-23T08:51:12;938.80;;;641.17;;
5137;SDS011;53959;53.626;11.410;2024-02-23T08:56:02;1048.10;;;720.20;;
5137;SDS011;53959;53.626;11.410;2024-02-23T09:00:53;1060.43;;;738.33;;
5137;SDS011;53959;53.626;11.410;2024-02-23T09:05:44;1060.80;;;734.73;;
5137;SDS011;53959;53.626;11.410;2024-02-23T09:08:12;760.30;;;540.10;;
5137;SDS011;53959;53.626;11.410;2024-02-23T09:13:02;1067.43;;;747.70;;
5137;SDS011;53959;53.626;11.410;2024-02-23T09:17:53;1049.43;;;738.13;;
5137;SDS011;53959;53.626;11.410;2024-02-23T09:22:44;1043.07;;;732.13;;
5137;SDS011;53959;53.626;11.410;2024-02-23T09:25:09;779.27;;;565.57;;
5137;SDS011;53959;53.626;11.410;2024-02-23T09:30:04;1095.93;;;741.42;;
5137;SDS011;53959;53.626;11.410;2024-02-23T09:32:29;808.13;;;565.35;;
5137;SDS011;53959;53.626;11.410;2024-02-23T09:34:55;822.97;;;580.73;;
5137;SDS011;53959;53.626;11.410;2024-02-23T09:37:20;796.30;;;554.67;;
5137;SDS011;53959;53.626;11.410;2024-02-23T09:39:46;816.50;;;565.88;;
5137;SDS011;53959;53.626;11.410;2024-02-23T09:42:11;820.30;;;567.15;;
5137;SDS011;53959;53.626;11.410;2024-02-23T09:44:36;811.53;;;566.10;;
5137;SDS011;53959;53.626;11.410;2024-02-23T09:47:02;784.55;;;550.05;;
5137;SDS011;53959;53.626;11.410;2024-02-23T09:49:38;820.92;;;571.50;;
5137;SDS011;53959;53.626;11.410;2024-02-23T09:52:08;809.50;;;564.45;;
5137;SDS011;53959;53.626;11.410;2024-02-23T09:54:37;802.03;;;563.88;;
5137;SDS011;53959;53.626;11.410;2024-02-23T09:57:05;814.05;;;570.25;;
5137;SDS011;53959;53.626;11.410;2024-02-23T10:11:51;1032.95;;;745.90;;
5137;SDS011;53959;53.626;11.410;2024-02-23T10:16:42;1008.20;;;718.33;;
5137;SDS011;53959;53.626;11.410;2024-02-23T10:21:33;960.00;;;685.17;;
5137;SDS011;53959;53.626;11.410;2024-02-23T10:23:59;1034.40;;;773.00;;
5137;SDS011;53959;53.626;11.410;2024-02-23T10:28:51;979.97;;;704.25;;
5137;SDS011;53959;53.626;11.410;2024-02-23T10:33:43;1024.90;;;725.80;;
5137;SDS011;53959;53.626;11.410;2024-02-23T10:38:37;1097.80;;;734.53;;
5137;SDS011;53959;53.626;11.410;2024-02-23T10:41:06;810.85;;;564.10;;
5137;SDS011;53959;53.626;11.410;2024-02-23T10:43:36;804.95;;;561.75;;
5137;SDS011;53959;53.626;11.410;2024-02-23T10:46:07;797.58;;;566.60;;
5137;SDS011;53959;53.626;11.410;2024-02-23T10:48:39;788.47;;;559.72;;
5137;SDS011;53959;53.626;11.410;2024-02-23T10:51:05;804.20;;;569.42;;
5137;SDS011;53959;53.626;11.410;2024-02-23T10:53:32;784.38;;;553.80;;
5137;SDS011;53959;53.626;11.410;2024-02-23T10:56:00;798.22;;;560.85;;
5137;SDS011;53959;53.626;11.410;2024-02-23T10:58:26;800.00;;;566.80;;
5137;SDS011;53959;53.626;11.410;2024-02-23T11:00:52;781.75;;;553.20;;
5137;SDS011;53959;53.626;11.410;2024-02-23T11:03:24;798.53;;;563.30;;
5137;SDS011;53959;53.626;11.410;2024-02-23T11:05:50;807.72;;;568.58;;
5137;SDS011;53959;53.626;11.410;2024-02-23T11:08:18;805.10;;;568.17;;
5137;SDS011;53959;53.626;11.410;2024-02-23T11:10:51;817.35;;;577.83;;
5137;SDS011;53959;53.626;11.410;2024-02-23T11:23:24;1072.65;;;755.78;;
5137;SDS011;53959;53.626;11.410;2024-02-23T11:28:48;1008.70;;;737.80;;
5137;SDS011;53959;53.626;11.410;2024-02-23T11:36:12;800.78;;;563.70;;
5137;SDS011;53959;53.626;11.410;2024-02-23T11:38:38;744.17;;;535.07;;
5137;SDS011;53959;53.626;11.410;2024-02-23T11:43:29;1044.23;;;737.53;;
5137;SDS011;53959;53.626;11.410;2024-02-23T11:48:20;1085.83;;;743.90;;
5137;SDS011;53959;53.626;11.410;2024-02-23T11:50:49;1004.30;;;709.25;;
5137;SDS011;53959;53.626;11.410;2024-02-23T12:00:32;791.03;;;566.63;;
5137;SDS011;53959;53.626;11.410;2024-02-23T12:10:13;924.37;;;608.40;;
5137;SDS011;53959;53.626;11.410;2024-02-23T12:15:05;997.10;;;657.95;;
5137;SDS011;53959;53.626;11.410;2024-02-23T12:17:31;869.75;;;590.35;;
5137;SDS011;53959;53.626;11.410;2024-02-23T12:22:25;1096.80;;;734.50;;
5137;SDS011;53959;53.626;11.410;2024-02-23T12:29:53;1070.60;;;746.00;;
5137;SDS011;53959;53.626;11.410;2024-02-23T12:34:45;1075.90;;;757.33;;
5137;SDS011;53959;53.626;11.410;2024-02-23T12:42:04;999.73;;;719.03;;
5137;SDS011;53959;53.626;11.410;2024-02-23T13:03:51;1054.30;;;731.40;;
5137;SDS011;53959;53.626;11.410;2024-02-23T13:08:42;749.93;;;534.37;;
5137;SDS011;53959;53.626;11.410;2024-02-23T13:15:59;676.93;;;516.73;;
5137;SDS011;53959;53.626;11.410;2024-02-23T13:28:07;963.70;;;728.95;;
5137;SDS011;53959;53.626;11.410;2024-02-23T13:33:00;677.17;;;503.27;;
5137;SDS011;53959;53.626;11.410;2024-02-23T13:37:51;987.35;;;730.20;;
5137;SDS011;53959;53.626;11.410;2024-02-23T13:50:02;928.88;;;700.45;;
5137;SDS011;53959;53.626;11.410;2024-02-23T13:54:53;1035.87;;;728.53;;
5137;SDS011;53959;53.626;11.410;2024-02-23T13:57:18;817.70;;;580.63;;
5137;SDS011;53959;53.626;11.410;2024-02-23T13:59:44;789.05;;;562.33;;
5137;SDS011;53959;53.626;11.410;2024-02-23T14:04:35;1056.30;;;730.90;;
5137;SDS011;53959;53.626;11.410;2024-02-23T14:07:00;799.88;;;561.65;;
5137;SDS011;53959;53.626;11.410;2024-02-23T14:09:26;810.95;;;568.88;;
5137;SDS011;53959;53.626;11.410;2024-02-23T14:11:51;811.22;;;568.35;;
5137;SDS011;53959;53.626;11.410;2024-02-23T14:14:17;833.73;;;589.83;;
5137;SDS011;53959;53.626;11.410;2024-02-23T14:16:42;805.70;;;563.88;;
5137;SDS011;53959;53.626;11.410;2024-02-23T14:21:33;635.80;;;489.37;;
5137;SDS011;53959;53.626;11.410;2024-02-23T14:26:26;768.00;;;550.57;;
5137;SDS011;53959;53.626;11.410;2024-02-23T14:31:17;930.80;;;643.45;;
5137;SDS011;53959;53.626;11.410;2024-02-23T14:33:42;837.20;;;579.80;;
5137;SDS011;53959;53.626;11.410;2024-02-23T14:48:16;1018.33;;;736.00;;
5137;SDS011;53959;53.626;11.410;2024-02-23T14:55:33;1026.60;;;746.70;;
5137;SDS011;53959;53.626;11.410;2024-02-23T15:00:25;933.90;;;672.13;;
5137;SDS011;53959;53.626;11.410;2024-02-23T15:22:17;1054.30;;;732.43;;
5137;SDS011;53959;53.626;11.410;2024-02-23T15:27:11;1065.18;;;731.70;;
5137;SDS011;53959;53.626;11.410;2024-02-23T15:29:36;1138.20;;;773.00;;
5137;SDS011;53959;53.626;11.410;2024-02-23T15:34:27;1070.87;;;743.10;;
5137;SDS011;53959;53.626;11.410;2024-02-23T15:39:17;1073.30;;;737.03;;
5137;SDS011;53959;53.626;11.410;2024-02-23T15:41:43;839.08;;;573.88;;
5137;SDS011;53959;53.626;11.410;2024-02-23T15:44:09;827.05;;;570.33;;
5137;SDS011;53959;53.626;11.410;2024-02-23T15:46:34;817.05;;;563.50;;
5137;SDS011;53959;53.626;11.410;2024-02-23T15:51:25;1059.67;;;730.67;;
5137;SDS011;53959;53.626;11.410;2024-02-23T15:56:15;1062.43;;;735.27;;
5137;SDS011;53959;53.626;11.410;2024-02-23T16:01:06;1059.17;;;726.40;;
5137;SDS011;53959;53.626;11.410;2024-02-23T16:03:31;859.10;;;597.40;;
5137;SDS011;53959;53.626;11.410;2024-02-23T16:05:57;814.88;;;568.70;;
5137;SDS011;53959;53.626;11.410;2024-02-23T16:11:23;838.67;;;584.20;;
5137;SDS011;53959;53.626;11.410;2024-02-23T16:13:48;780.25;;;547.95;;
5137;SDS011;53959;53.626;11.410;2024-02-23T16:16:13;1117.10;;;773.90;;
5137;SDS011;53959;53.626;11.410;2024-02-23T16:21:05;1069.50;;;730.10;;
5137;SDS011;53959;53.626;11.410;2024-02-23T16:23:30;818.00;;;565.58;;
5137;SDS011;53959;53.626;11.410;2024-02-23T16:25:56;821.17;;;567.75;;
5137;SDS011;53959;53.626;11.410;2024-02-23T16:28:22;830.30;;;573.88;;
5137;SDS011;53959;53.626;11.410;2024-02-23T16:30:47;822.10;;;567.97;;
5137;SDS011;53959;53.626;11.410;2024-02-23T16:33:13;826.70;;;570.57;;
5137;SDS011;53959;53.626;11.410;2024-02-23T16:35:39;821.53;;;567.20;;
5137;SDS011;53959;53.626;11.410;2024-02-23T16:38:04;816.03;;;562.60;;
5137;SDS011;53959;53.626;11.410;2024-02-23T16:40:29;829.42;;;570.83;;
5137;SDS011;53959;53.626;11.410;2024-02-23T16:42:55;813.35;;;561.35;;
5137;SDS011;53959;53.626;11.410;2024-02-23T16:45:21;839.15;;;576.47;;
5137;SDS011;53959;53.626;11.410;2024-02-23T16:47:47;859.70;;;584.50;;
5137;SDS011;53959;53.626;11.410;2024-02-23T16:50:12;847.03;;;575.95;;
5137;SDS011;53959;53.626;11.410;2024-02-23T16:52:38;852.78;;;579.88;;
5137;SDS011;53959;53.626;11.410;2024-02-23T16:55:04;855.70;;;581.42;;
5137;SDS011;53959;53.626;11.410;2024-02-23T16:57:30;830.72;;;567.13;;
5137;SDS011;53959;53.626;11.410;2024-02-23T16:59:56;899.95;;;603.65;;
5137;SDS011;53959;53.626;11.410;2024-02-23T17:02:21;872.92;;;586.25;;
5137;SDS011;53959;53.626;11.410;2024-02-23T17:04:46;897.22;;;600.83;;
5137;SDS011;53959;53.626;11.410;2024-02-23T17:07:12;893.05;;;597.60;;
5137;SDS011;53959;53.626;11.410;2024-02-23T17:09:37;896.45;;;599.60;;
5137;SDS011;53959;53.626;11.410;2024-02-23T17:12:03;896.17;;;599.90;;
5137;SDS011;53959;53.626;11.410;2024-02-23T17:14:28;864.22;;;584.67;;
5137;SDS011;53959;53.626;11.410;2024-02-23T17:16:54;884.35;;;593.88;;
5137;SDS011;53959;53.626;11.410;2024-02-23T17:19:19;886.03;;;592.43;;
5137;SDS011;53959;53.626;11.410;2024-02-23T17:21:45;916.43;;;607.23;;
5137;SDS011;53959;53.626;11.410;2024-02-23T17:24:10;903.20;;;599.20;;
5137;SDS011;53959;53.626;11.410;2024-02-23T17:26:35;916.38;;;606.95;;
5137;SDS011;53959;53.626;11.410;2024-02-23T17:29:01;878.30;;;587.20;;
5137;SDS011;53959;53.626;11.410;2024-02-23T17:31:27;895.67;;;600.15;;
5137;SDS011;53959;53.626;11.410;2024-02-23T17:33:52;900.17;;;603.05;;
5137;SDS011;53959;53.626;11.410;2024-02-23T17:36:18;900.00;;;602.00;;
5137;SDS011;53959;53.626;11.410;2024-02-23T17:38:43;904.10;;;601.95;;
5137;SDS011;53959;53.626;11.410;2024-02-23T17:41:08;922.70;;;612.38;;
5137;SDS011;53959;53.626;11.410;2024-02-23T17:43:33;915.80;;;608.13;;
5137;SDS011;53959;53.626;11.410;2024-02-23T17:45:59;918.42;;;608.70;;
5137;SDS011;53959;53.626;11.410;2024-02-23T17:48:24;932.67;;;616.63;;
5137;SDS011;53959;53.626;11.410;2024-02-23T17:50:50;919.15;;;608.60;;
5137;SDS011;53959;53.626;11.410;2024-02-23T17:53:15;929.65;;;615.10;;
5137;SDS011;53959;53.626;11.410;2024-02-23T17:55:41;920.53;;;609.30;;
5137;SDS011;53959;53.626;11.410;2024-02-23T17:58:06;923.45;;;612.80;;
5137;SDS011;53959;53.626;11.410;2024-02-23T18:00:31;922.80;;;610.80;;
5137;SDS011;53959;53.626;11.410;2024-02-23T18:02:57;920.17;;;619.03;;
5137;SDS011;53959;53.626;11.410;2024-02-23T18:05:22;945.80;;;632.37;;
5137;SDS011;53959;53.626;11.410;2024-02-23T18:07:49;986.97;;;656.20;;
5137;SDS011;53959;53.626;11.410;2024-02-23T18:10:14;973.17;;;647.50;;
5137;SDS011;53959;53.626;11.410;2024-02-23T18:12:39;969.70;;;647.13;;
5137;SDS011;53959;53.626;11.410;2024-02-23T18:15:06;1027.27;;;667.63;;